createdAt,value
2022-10-20T00:03:19.418Z,98404.78
2022-10-20T00:07:23.984Z,98412.41
2022-10-20T00:11:28.546Z,98411.31
2022-10-20T00:15:32.067Z,98399.44
2022-10-20T00:19:36.918Z,98400.56
2022-10-20T00:23:40.398Z,98399.34
2022-10-20T00:27:43.960Z,98397.34
2022-10-20T00:31:47.629Z,98401.50
2022-10-20T00:35:52.080Z,98395.22
2022-10-20T00:39:55.438Z,98380.75
2022-10-20T00:44:00.947Z,98382.66
2022-10-20T00:48:10.188Z,98364.84
2022-10-20T00:52:15.735Z,98355.81
2022-10-20T00:56:19.265Z,98365.88
2022-10-20T01:00:23.622Z,98354.25
2022-10-20T01:04:30.674Z,98349.47
2022-10-20T01:08:35.949Z,98350.69
2022-10-20T01:12:46.697Z,98342.50
2022-10-20T01:16:59.659Z,98343.75
2022-10-20T01:21:12.351Z,98335.25
2022-10-20T01:25:35.925Z,98335.97
2022-10-20T01:29:45.977Z,98326.03
2022-10-20T01:33:56.785Z,98334.94
2022-10-20T01:38:07.841Z,98322.63
2022-10-20T01:42:15.691Z,98325.94
2022-10-20T01:46:26.033Z,98321.44
2022-10-20T01:50:30.729Z,98312.00
2022-10-20T01:54:34.135Z,98312.97
2022-10-20T01:59:15.970Z,98323.09
2022-10-20T02:03:34.041Z,98317.66
2022-10-20T02:07:37.944Z,98317.50
2022-10-20T02:11:47.181Z,98303.97
2022-10-20T02:15:54.937Z,98309.59
2022-10-20T02:20:00.082Z,98297.81
2022-10-20T02:24:06.944Z,98294.53
2022-10-20T02:28:13.353Z,98289.59
2022-10-20T02:32:19.083Z,98289.88
2022-10-20T02:36:28.609Z,98282.19
2022-10-20T02:40:31.734Z,98285.09
2022-10-20T02:44:35.321Z,98282.78
2022-10-20T02:48:39.179Z,98276.19
2022-10-20T02:52:43.681Z,98272.09
2022-10-20T02:56:47.123Z,98273.06
2022-10-20T03:00:51.515Z,98274.16
2022-10-20T03:04:54.537Z,98264.97
2022-10-20T03:08:59.505Z,98274.72
2022-10-20T03:13:02.826Z,98275.13
2022-10-20T03:17:05.890Z,98269.50
2022-10-20T03:21:09.276Z,98267.19
2022-10-20T03:25:14.126Z,98260.59
2022-10-20T03:29:17.131Z,98266.91
2022-10-20T03:33:20.581Z,98261.84
2022-10-20T03:37:24.157Z,98265.53
2022-10-20T03:41:29.182Z,98262.81
2022-10-20T03:45:32.752Z,98270.88
2022-10-20T03:49:35.737Z,98251.97
2022-10-20T03:53:39.381Z,98247.63
2022-10-20T03:57:44.288Z,98244.88
2022-10-20T04:01:48.108Z,98243.25
2022-10-20T04:05:51.774Z,98245.72
2022-10-20T04:09:56.695Z,98233.78
2022-10-20T04:14:02.158Z,98237.34
2022-10-20T04:18:05.683Z,98234.88
2022-10-20T04:22:08.955Z,98227.22
2022-10-20T04:26:13.618Z,98232.56
2022-10-20T04:30:18.292Z,98229.44
2022-10-20T04:34:21.985Z,98230.50
2022-10-20T04:38:25.553Z,98217.63
2022-10-20T04:42:28.546Z,98213.41
2022-10-20T04:46:33.737Z,98215.47
2022-10-20T04:50:37.248Z,98208.63
2022-10-20T04:54:40.763Z,98198.06
2022-10-20T04:58:43.747Z,98183.84
2022-10-20T05:02:48.927Z,98196.31
2022-10-20T05:06:52.394Z,98198.78
2022-10-20T05:10:55.905Z,98194.38
2022-10-20T05:14:59.536Z,98195.47
2022-10-20T05:19:04.251Z,98202.63
2022-10-20T05:23:07.794Z,98197.41
2022-10-20T05:27:11.286Z,98185.22
2022-10-20T05:31:17.776Z,98194.69
2022-10-20T05:35:22.727Z,98195.47
2022-10-20T05:39:25.758Z,98196.44
2022-10-20T05:43:29.424Z,98201.50
2022-10-20T05:47:33.240Z,98204.25
2022-10-20T05:51:38.184Z,98205.88
2022-10-20T05:55:41.616Z,98199.56
2022-10-20T05:59:44.645Z,98206.44
2022-10-20T06:03:52.085Z,98211.88
2022-10-20T06:07:57.227Z,98208.31
2022-10-20T06:12:00.825Z,98219.47
2022-10-20T06:16:05.791Z,98213.41
2022-10-20T06:20:09.454Z,98225.38
2022-10-20T06:24:14.743Z,98224.38
2022-10-20T06:28:18.515Z,98221.75
2022-10-20T06:32:22.393Z,98229.91
2022-10-20T06:36:27.282Z,98236.81
2022-10-20T06:40:31.759Z,98221.44
2022-10-20T06:44:35.174Z,98220.09
2022-10-20T06:48:38.739Z,98214.63
2022-10-20T06:52:42.539Z,98224.66
2022-10-20T06:56:47.413Z,98222.34
2022-10-20T07:00:59.643Z,98220.34
2022-10-20T07:05:03.098Z,98218.91
2022-10-20T07:09:08.885Z,98223.53
2022-10-20T07:13:13.859Z,98217.34
2022-10-20T07:17:17.394Z,98222.56
2022-10-20T07:21:22.009Z,98222.91
2022-10-20T07:25:25.505Z,98214.44
2022-10-20T07:29:30.137Z,98209.56
2022-10-20T07:33:33.681Z,98209.09
2022-10-20T07:37:36.938Z,98203.59
2022-10-20T07:41:40.765Z,98188.41
2022-10-20T07:45:45.884Z,98181.22
2022-10-20T07:49:49.312Z,98187.25
2022-10-20T07:53:56.820Z,98171.91
2022-10-20T07:58:03.190Z,98185.16
2022-10-20T08:02:07.598Z,98182.88
2022-10-20T08:06:11.504Z,98176.97
2022-10-20T08:10:15.313Z,98151.13
2022-10-20T08:14:18.763Z,98174.28
2022-10-20T08:18:23.898Z,98176.84
2022-10-20T08:22:27.347Z,98167.81
2022-10-20T08:26:31.210Z,98165.28
2022-10-20T08:30:34.831Z,98159.66
2022-10-20T08:34:40.063Z,98160.06
2022-10-20T08:38:43.932Z,98160.19
2022-10-20T08:42:48.613Z,98163.13
2022-10-20T08:46:52.078Z,98168.63
2022-10-20T08:50:57.921Z,98176.06
2022-10-20T08:55:01.925Z,98168.63
2022-10-20T08:59:26.114Z,98146.13
2022-10-20T09:03:32.834Z,98137.25
2022-10-20T09:07:40.153Z,98137.59
2022-10-20T09:11:45.219Z,98130.06
2022-10-20T09:15:50.226Z,98123.66
2022-10-20T09:19:58.646Z,98118.28
2022-10-20T09:24:05.955Z,98118.59
2022-10-20T09:28:21.957Z,98107.94
2022-10-20T09:32:50.895Z,98115.44
2022-10-20T09:36:57.698Z,98105.47
2022-10-20T09:41:11.728Z,98094.31
2022-10-20T09:45:22.120Z,98090.34
2022-10-20T09:49:29.937Z,98098.03
2022-10-20T09:53:37.618Z,98103.06
2022-10-20T09:57:48.485Z,98095.09
2022-10-20T10:01:57.467Z,98090.84
2022-10-20T10:06:01.403Z,98087.72
2022-10-20T10:10:08.619Z,98076.53
2022-10-20T10:14:23.991Z,98071.41
2022-10-20T10:18:27.596Z,98067.94
2022-10-20T10:22:30.650Z,98063.59
2022-10-20T10:26:40.314Z,98036.63
2022-10-20T10:30:46.984Z,98038.28
2022-10-20T10:35:20.756Z,98028.75
2022-10-20T10:39:24.327Z,98027.97
2022-10-20T10:43:39.360Z,98019.84
2022-10-20T10:48:19.427Z,98026.53
2022-10-20T10:52:35.780Z,98032.03
2022-10-20T10:56:45.874Z,98025.53
2022-10-20T11:00:59.699Z,98027.53
2022-10-20T11:05:28.702Z,98024.66
2022-10-20T11:09:42.152Z,98012.81
2022-10-20T11:13:56.259Z,98005.00
2022-10-20T11:18:07.985Z,97984.19
2022-10-20T11:22:26.042Z,97982.78
2022-10-20T11:26:35.132Z,97982.78
2022-10-20T11:30:38.209Z,97968.72
2022-10-20T11:34:51.775Z,97957.09
2022-10-20T11:38:57.643Z,97959.13
2022-10-20T11:43:10.338Z,97948.72
2022-10-20T11:47:17.812Z,97943.44
2022-10-20T11:51:42.116Z,97933.06
2022-10-20T11:56:07.796Z,97936.91
2022-10-20T12:00:28.987Z,97934.13
2022-10-20T12:04:55.733Z,97934.97
2022-10-20T12:09:11.790Z,97932.16
2022-10-20T12:13:38.132Z,97925.50
2022-10-20T12:17:44.645Z,97938.78
2022-10-20T12:21:57.905Z,97923.59
2022-10-20T12:26:01.386Z,97902.66
2022-10-20T12:30:56.424Z,97879.84
2022-10-20T12:35:01.347Z,97876.19
2022-10-20T12:39:30.411Z,97874.22
2022-10-20T12:43:49.132Z,97875.91
2022-10-20T12:47:59.146Z,97876.31
2022-10-20T12:52:04.020Z,97867.41
2022-10-20T13:01:00.508Z,97877.97
2022-10-20T13:05:28.893Z,97875.94
2022-10-20T13:09:32.426Z,97865.81
2022-10-20T13:13:45.502Z,97858.09
2022-10-20T13:17:57.988Z,97870.78
2022-10-20T13:22:30.978Z,97858.59
2022-10-20T13:26:40.296Z,97870.56
2022-10-20T13:31:13.154Z,97864.50
2022-10-20T13:35:24.188Z,97855.81
2022-10-20T13:39:38.303Z,97860.88
2022-10-20T13:43:51.863Z,97856.81
2022-10-20T13:48:07.026Z,97846.50
2022-10-20T13:52:16.513Z,97849.09
2022-10-20T13:56:34.235Z,97848.88
2022-10-20T14:00:38.785Z,97830.59
2022-10-20T14:04:45.116Z,97835.84
2022-10-20T14:08:48.895Z,97826.09
2022-10-20T14:12:55.463Z,97825.31
2022-10-20T14:17:01.747Z,97815.78
2022-10-20T14:21:08.963Z,97816.34
2022-10-20T14:25:13.277Z,97815.78
2022-10-20T14:29:19.766Z,97823.06
2022-10-20T14:33:23.484Z,97824.91
2022-10-20T14:37:33.720Z,97811.94
2022-10-20T14:41:37.643Z,97802.63
2022-10-20T14:45:42.596Z,97813.38
2022-10-20T14:49:52.346Z,97801.44
2022-10-20T14:54:24.593Z,97801.25
2022-10-20T14:58:37.175Z,97800.19
2022-10-20T15:02:43.884Z,97810.50
2022-10-20T15:06:47.039Z,97821.97
2022-10-20T15:10:50.599Z,97829.53
2022-10-20T15:14:56.198Z,97827.78
2022-10-20T15:19:20.392Z,97818.34
2022-10-20T15:23:25.077Z,97813.81
2022-10-20T15:27:28.233Z,97804.41
2022-10-20T15:31:32.213Z,97807.09
2022-10-20T15:35:36.624Z,97799.09
2022-10-20T15:39:40.235Z,97782.56
2022-10-20T15:48:08.459Z,97800.03
2022-10-20T15:52:14.012Z,97794.22
2022-10-20T15:56:17.465Z,97792.81
2022-10-20T16:00:22.608Z,97784.75
2022-10-20T16:04:26.646Z,97793.47
2022-10-20T16:08:32.072Z,97782.81
2022-10-20T16:12:36.313Z,97790.50
2022-10-20T16:16:40.010Z,97783.09
2022-10-20T16:20:43.439Z,97788.78
2022-10-20T16:24:47.848Z,97792.13
2022-10-20T16:28:51.941Z,97788.75
2022-10-20T16:32:55.293Z,97791.13
2022-10-20T16:36:59.014Z,97795.28
2022-10-20T16:41:05.955Z,97803.97
2022-10-20T16:45:10.054Z,97807.78
2022-10-20T16:49:13.938Z,97803.69
2022-10-20T16:53:18.363Z,97804.06
2022-10-20T16:57:23.280Z,97805.22
2022-10-20T17:01:27.353Z,97804.78
2022-10-20T17:05:30.412Z,97795.81
2022-10-20T17:09:34.243Z,97801.59
2022-10-20T17:13:40.041Z,97802.09
2022-10-20T17:17:43.959Z,97795.13
2022-10-20T17:21:46.887Z,97789.63
2022-10-20T17:25:50.086Z,97790.50
2022-10-20T17:29:54.849Z,97800.03
2022-10-20T17:33:58.989Z,97801.72
2022-10-20T17:38:04.460Z,97808.63
2022-10-20T17:42:07.877Z,97802.09
2022-10-20T17:46:16.377Z,97798.38
2022-10-20T17:50:19.541Z,97797.75
2022-10-20T17:54:24.272Z,97798.25
2022-10-20T17:58:28.848Z,97798.94
2022-10-20T18:02:33.361Z,97789.66
2022-10-20T18:06:38.323Z,97789.16
2022-10-20T18:10:44.861Z,97785.28
2022-10-20T18:14:48.978Z,97784.63
2022-10-20T18:18:54.199Z,97786.88
2022-10-20T18:22:57.565Z,97797.69
2022-10-20T18:27:01.304Z,97790.19
2022-10-20T18:31:11.378Z,97777.75
2022-10-20T18:35:16.996Z,97775.31
2022-10-20T18:39:20.862Z,97774.88
2022-10-20T18:43:24.158Z,97761.44
2022-10-20T18:47:27.648Z,97748.09
2022-10-20T18:51:33.180Z,97742.84
2022-10-20T18:55:37.181Z,97749.06
2022-10-20T19:09:31.210Z,97761.84
2022-10-20T19:13:35.219Z,97759.56
2022-10-20T19:17:38.866Z,97734.75
2022-10-20T19:21:42.912Z,97732.47
2022-10-20T19:25:51.470Z,97721.53
2022-10-20T19:29:56.215Z,97704.78
2022-10-20T19:34:02.846Z,97713.13
2022-10-20T19:38:06.543Z,97724.06
2022-10-20T19:42:13.073Z,97719.16
2022-10-20T19:46:19.768Z,97711.03
2022-10-20T19:50:23.365Z,97706.47
2022-10-20T19:54:27.363Z,97708.13
2022-10-20T19:58:32.363Z,97712.09
2022-10-20T20:02:38.270Z,97708.53
2022-10-20T20:06:41.701Z,97710.19
2022-10-20T20:10:53.588Z,97723.91
2022-10-20T20:14:59.159Z,97728.97
2022-10-20T20:19:03.247Z,97717.56
2022-10-20T20:23:07.190Z,97695.72
2022-10-20T20:27:13.854Z,97694.75
2022-10-20T20:31:19.539Z,97702.25
2022-10-20T20:35:23.269Z,97710.59
2022-10-20T20:39:27.182Z,97714.47
2022-10-20T20:43:31.373Z,97723.59
2022-10-20T20:47:37.393Z,97715.47
2022-10-20T20:51:41.118Z,97721.00
2022-10-20T20:55:55.330Z,97717.09
2022-10-20T21:00:05.087Z,97710.25
2022-10-20T21:04:14.086Z,97704.22
2022-10-20T21:08:17.124Z,97707.31
2022-10-20T21:12:20.680Z,97717.09
2022-10-20T21:16:26.730Z,97702.94
2022-10-20T21:20:31.107Z,97694.13
2022-10-20T21:24:34.639Z,97684.84
2022-10-20T21:28:38.456Z,97682.22
2022-10-20T21:32:41.453Z,97679.78
2022-10-20T21:36:46.498Z,97671.28
2022-10-20T21:40:50.043Z,97682.53
2022-10-20T21:44:53.000Z,97681.56
2022-10-20T21:48:59.818Z,97682.22
2022-10-20T21:53:04.725Z,97676.03
2022-10-20T21:57:08.190Z,97693.63
2022-10-20T22:01:12.960Z,97690.38
2022-10-20T22:05:16.481Z,97678.47
2022-10-20T22:09:22.617Z,97677.97
2022-10-20T22:13:25.758Z,97668.84
2022-10-20T22:17:29.304Z,97640.50
2022-10-20T22:21:33.800Z,97641.66
2022-10-20T22:25:39.145Z,97647.97
2022-10-20T22:29:42.452Z,97647.66
2022-10-20T22:33:45.969Z,97635.28
2022-10-20T22:37:48.961Z,97647.00
2022-10-20T22:41:53.701Z,97645.56
2022-10-20T22:45:57.229Z,97632.34
2022-10-20T22:50:00.209Z,97642.44
2022-10-20T22:54:03.620Z,97633.28
2022-10-20T22:58:08.077Z,97634.59
2022-10-20T23:02:11.582Z,97646.47
2022-10-20T23:06:17.317Z,97641.75
2022-10-20T23:10:20.353Z,97633.94
2022-10-20T23:14:25.052Z,97644.03
2022-10-20T23:18:28.759Z,97639.78
2022-10-20T23:22:31.968Z,97640.59
2022-10-20T23:26:35.574Z,97634.25
2022-10-20T23:30:40.413Z,97635.59
2022-10-20T23:34:43.413Z,97635.41
2022-10-20T23:38:47.754Z,97636.22
2022-10-20T23:42:51.146Z,97640.44
2022-10-20T23:46:55.921Z,97650.88
2022-10-20T23:50:59.700Z,97671.88
2022-10-20T23:55:02.919Z,97657.38
2022-10-20T23:59:06.102Z,97647.13
